createdAt,value
2022-10-23T00:02:46.534Z,37.16
2022-10-23T00:07:53.287Z,37.47
2022-10-23T00:13:00.410Z,37.62
2022-10-23T00:18:07.573Z,37.78
2022-10-23T00:23:14.808Z,37.93
2022-10-23T00:28:21.978Z,38.20
2022-10-23T00:33:29.157Z,38.40
2022-10-23T00:38:36.411Z,38.50
2022-10-23T00:43:43.618Z,38.63
2022-10-23T00:48:50.844Z,38.86
2022-10-23T00:54:06.482Z,38.76
2022-10-23T00:59:05.319Z,38.52
2022-10-23T01:04:12.517Z,38.57
2022-10-23T01:09:19.688Z,39.05
2022-10-23T01:14:27.040Z,39.00
2022-10-23T01:19:34.208Z,38.91
2022-10-23T01:24:41.683Z,38.97
2022-10-23T01:29:48.848Z,39.34
2022-10-23T01:34:56.078Z,39.29
2022-10-23T01:40:03.307Z,39.14
2022-10-23T01:45:10.532Z,39.46
2022-10-23T01:50:17.790Z,39.40
2022-10-23T01:55:25.061Z,39.38
2022-10-23T02:00:32.304Z,39.85
2022-10-23T02:05:39.509Z,39.76
2022-10-23T02:10:46.733Z,39.45
2022-10-23T02:15:53.922Z,39.79
2022-10-23T02:21:01.221Z,40.02
2022-10-23T02:26:08.446Z,40.06
2022-10-23T02:31:15.606Z,40.06
2022-10-23T02:36:22.783Z,39.60
2022-10-23T02:41:30.063Z,39.42
2022-10-23T02:46:37.228Z,39.67
2022-10-23T02:51:44.384Z,39.89
2022-10-23T02:56:51.639Z,40.09
2022-10-23T03:01:58.987Z,40.41
2022-10-23T03:07:06.091Z,40.36
2022-10-23T03:12:13.294Z,40.78
2022-10-23T03:17:20.468Z,40.50
2022-10-23T03:22:27.692Z,40.61
2022-10-23T03:27:34.860Z,40.26
2022-10-23T03:32:42.446Z,40.18
2022-10-23T03:37:49.246Z,40.20
2022-10-23T03:42:56.506Z,40.22
2022-10-23T03:48:03.661Z,40.37
2022-10-23T03:53:10.830Z,40.24
2022-10-23T03:58:18.027Z,40.13
2022-10-23T04:03:25.244Z,40.19
2022-10-23T04:08:32.397Z,40.31
2022-10-23T04:13:39.595Z,40.28
2022-10-23T04:18:46.735Z,40.68
2022-10-23T04:23:53.910Z,40.64
2022-10-23T04:29:01.090Z,40.61
2022-10-23T04:34:08.317Z,40.61
2022-10-23T04:39:15.524Z,40.53
2022-10-23T04:44:22.773Z,40.75
2022-10-23T04:49:29.912Z,40.73
2022-10-23T04:54:37.161Z,40.65
2022-10-23T04:59:44.453Z,40.52
2022-10-23T05:04:51.666Z,40.81
2022-10-23T05:09:58.852Z,40.46
2022-10-23T05:15:06.112Z,40.64
2022-10-23T05:20:13.380Z,40.64
2022-10-23T05:25:20.600Z,40.67
2022-10-23T05:30:27.800Z,40.50
2022-10-23T05:35:35.000Z,40.17
2022-10-23T05:40:42.193Z,40.27
2022-10-23T05:45:49.406Z,40.36
2022-10-23T05:50:56.609Z,40.20
2022-10-23T05:56:03.884Z,40.41
2022-10-23T06:01:11.272Z,40.27
2022-10-23T06:06:18.403Z,40.29
2022-10-23T06:11:25.653Z,40.36
2022-10-23T06:16:32.891Z,40.20
2022-10-23T06:21:40.037Z,40.02
2022-10-23T06:26:47.266Z,40.36
2022-10-23T06:31:54.489Z,40.17
2022-10-23T06:37:01.664Z,40.40
2022-10-23T06:42:08.868Z,40.34
2022-10-23T06:52:42.101Z,40.58
2022-10-23T06:57:30.481Z,40.62
2022-10-23T07:02:37.701Z,40.71
2022-10-23T07:07:44.891Z,40.82
2022-10-23T07:12:52.087Z,40.79
2022-10-23T07:17:59.284Z,40.85
2022-10-23T07:23:06.489Z,40.92
2022-10-23T07:28:13.691Z,40.97
2022-10-23T07:33:20.969Z,41.04
2022-10-23T07:38:28.114Z,41.04
2022-10-23T07:43:35.317Z,41.06
2022-10-23T07:48:42.536Z,41.07
2022-10-23T07:53:49.727Z,41.09
2022-10-23T07:58:56.924Z,41.14
2022-10-23T08:04:04.117Z,41.17
2022-10-23T08:09:11.263Z,41.26
2022-10-23T08:14:18.538Z,41.24
2022-10-23T08:19:25.692Z,41.29
2022-10-23T08:24:32.824Z,41.65
2022-10-23T08:29:40.064Z,41.56
2022-10-23T08:34:47.273Z,41.52
2022-10-23T08:39:54.498Z,41.53
2022-10-23T08:45:01.691Z,41.50
2022-10-23T08:50:08.897Z,41.48
2022-10-23T08:55:16.076Z,41.42
2022-10-23T09:00:23.283Z,41.38
2022-10-23T09:05:30.525Z,41.33
2022-10-23T09:10:37.703Z,41.35
2022-10-23T09:15:46.181Z,41.73
2022-10-23T09:20:53.448Z,41.71
2022-10-23T09:26:00.659Z,42.41
2022-10-23T09:31:11.018Z,42.71
2022-10-23T09:36:15.800Z,42.90
2022-10-23T09:41:22.977Z,42.99
2022-10-23T09:46:30.274Z,43.37
2022-10-23T09:51:37.552Z,43.18
2022-10-23T09:56:44.777Z,43.04
2022-10-23T10:01:52.121Z,43.11
2022-10-23T10:06:59.248Z,43.02
2022-10-23T10:12:06.607Z,42.90
2022-10-23T10:17:13.816Z,42.73
2022-10-23T10:22:21.068Z,42.91
2022-10-23T10:27:28.204Z,42.67
2022-10-23T10:32:35.422Z,42.95
2022-10-23T10:37:44.845Z,42.87
2022-10-23T10:42:49.789Z,43.07
2022-10-23T10:47:56.924Z,43.04
2022-10-23T10:53:04.154Z,42.89
2022-10-23T10:58:11.288Z,43.16
2022-10-23T11:03:18.476Z,43.10
2022-10-23T11:08:25.673Z,43.03
2022-10-23T11:13:32.851Z,43.25
2022-10-23T11:18:40.051Z,42.94
2022-10-23T11:23:47.255Z,42.98
2022-10-23T11:28:54.403Z,43.00
2022-10-23T11:34:01.568Z,43.02
2022-10-23T11:39:09.001Z,43.53
2022-10-23T11:44:16.278Z,43.54
2022-10-23T11:49:23.597Z,43.91
2022-10-23T11:54:31.059Z,43.66
2022-10-23T11:59:38.220Z,43.75
2022-10-23T12:04:45.428Z,44.13
2022-10-23T12:09:52.938Z,43.86
2022-10-23T12:15:00.155Z,44.02
2022-10-23T12:20:07.343Z,44.31
2022-10-23T12:25:14.658Z,44.86
2022-10-23T12:30:21.855Z,45.16
2022-10-23T12:35:29.253Z,45.11
2022-10-23T12:40:36.585Z,44.85
2022-10-23T12:45:43.785Z,43.72
2022-10-23T12:50:51.270Z,43.35
2022-10-23T13:01:05.905Z,42.52
2022-10-23T13:06:12.989Z,42.20
2022-10-23T13:11:20.425Z,42.31
2022-10-23T13:16:27.727Z,42.18
2022-10-23T13:21:35.172Z,42.10
2022-10-23T13:26:42.901Z,41.91
2022-10-23T13:31:50.443Z,41.84
2022-10-23T13:36:57.778Z,41.88
2022-10-23T13:42:05.050Z,41.60
2022-10-23T13:47:12.339Z,41.17
2022-10-23T13:52:19.768Z,40.97
2022-10-23T13:57:27.023Z,41.02
2022-10-23T14:02:34.288Z,41.09
2022-10-23T14:07:41.816Z,41.06
2022-10-23T14:12:48.770Z,40.96
2022-10-23T14:17:59.482Z,41.15
2022-10-23T14:23:04.444Z,41.33
2022-10-23T14:28:11.994Z,41.78
2022-10-23T14:33:19.374Z,42.29
2022-10-23T14:38:26.889Z,42.71
2022-10-23T14:43:34.356Z,42.58
2022-10-23T14:48:45.434Z,42.95
2022-10-23T14:53:49.220Z,43.15
2022-10-23T14:58:56.664Z,43.09
2022-10-23T15:04:04.127Z,43.50
2022-10-23T15:09:11.744Z,43.46
2022-10-23T15:14:19.986Z,43.56
2022-10-23T15:19:27.373Z,43.27
2022-10-23T15:24:34.808Z,43.30
2022-10-23T15:29:42.009Z,42.79
2022-10-23T15:34:49.251Z,42.93
2022-10-23T15:39:58.403Z,42.68
2022-10-23T15:45:03.724Z,43.05
2022-10-23T15:50:10.952Z,42.98
2022-10-23T15:55:18.531Z,43.17
2022-10-23T16:00:25.924Z,42.70
2022-10-23T16:05:33.041Z,43.02
2022-10-23T16:10:40.380Z,43.19
2022-10-23T16:15:47.644Z,43.22
2022-10-23T16:20:54.881Z,43.16
2022-10-23T16:26:02.091Z,43.26
2022-10-23T16:31:09.395Z,43.29
2022-10-23T16:36:16.600Z,43.33
2022-10-23T16:41:24.082Z,43.31
2022-10-23T16:46:31.623Z,43.30
2022-10-23T16:51:39.018Z,43.25
2022-10-23T16:56:46.725Z,43.26
2022-10-23T17:01:54.488Z,43.23
2022-10-23T17:07:01.948Z,43.22
2022-10-23T17:12:09.667Z,43.33
2022-10-23T17:17:17.310Z,44.00
2022-10-23T17:22:24.896Z,42.93
2022-10-23T17:27:32.534Z,43.39
2022-10-23T17:32:40.152Z,43.55
2022-10-23T17:37:47.692Z,43.59
2022-10-23T17:42:55.249Z,43.52
2022-10-23T17:48:02.891Z,43.51
2022-10-23T17:53:10.987Z,43.43
2022-10-23T17:58:18.399Z,43.42
2022-10-23T18:03:26.249Z,43.31
2022-10-23T18:08:33.737Z,43.27
2022-10-23T18:13:41.350Z,43.28
2022-10-23T18:18:48.984Z,43.28
2022-10-23T18:23:56.678Z,43.33
2022-10-23T18:29:04.010Z,43.33
2022-10-23T18:34:11.522Z,43.22
2022-10-23T18:39:19.064Z,43.15
2022-10-23T18:44:27.233Z,42.96
2022-10-23T18:49:37.029Z,42.89
2022-10-23T18:54:46.359Z,42.20
2022-10-23T18:59:53.922Z,41.29
2022-10-23T19:05:01.610Z,41.45
2022-10-23T19:10:09.302Z,41.56
2022-10-23T19:15:17.019Z,41.41
2022-10-23T19:20:24.520Z,41.52
2022-10-23T19:25:31.947Z,41.26
2022-10-23T19:30:39.561Z,41.35
2022-10-23T19:35:47.297Z,41.47
2022-10-23T19:40:54.897Z,41.78
2022-10-23T19:46:04.972Z,42.26
2022-10-23T19:51:10.245Z,42.03
2022-10-23T19:56:17.934Z,42.01
2022-10-23T20:01:25.817Z,42.13
2022-10-23T20:06:33.698Z,42.23
2022-10-23T20:11:41.000Z,42.13
2022-10-23T20:16:51.134Z,42.05
2022-10-23T20:21:56.132Z,42.11
2022-10-23T20:27:03.470Z,41.77
2022-10-23T20:32:10.713Z,41.90
2022-10-23T20:37:18.157Z,43.63
2022-10-23T20:42:25.378Z,41.78
2022-10-23T20:47:32.579Z,41.10
2022-10-23T20:52:39.797Z,41.22
2022-10-23T20:57:47.230Z,41.60
2022-10-23T21:02:54.624Z,41.63
2022-10-23T21:08:01.692Z,41.40
2022-10-23T21:13:08.984Z,41.49
2022-10-23T21:18:26.519Z,41.20
2022-10-23T21:23:23.443Z,40.98
2022-10-23T21:28:30.664Z,41.03
2022-10-23T21:33:37.862Z,40.77
2022-10-23T21:38:45.028Z,40.70
2022-10-23T21:43:52.225Z,40.73
2022-10-23T21:48:59.441Z,40.87
2022-10-23T21:54:06.645Z,40.80
2022-10-23T21:59:13.851Z,40.66
2022-10-23T22:04:21.075Z,40.81
2022-10-23T22:09:28.358Z,41.99
2022-10-23T22:14:35.538Z,42.12
2022-10-23T22:19:42.745Z,42.24
2022-10-23T22:24:49.930Z,42.32
2022-10-23T22:29:57.372Z,42.24
2022-10-23T22:35:04.624Z,42.17
2022-10-23T22:40:11.827Z,42.29
2022-10-23T22:45:18.980Z,42.26
2022-10-23T22:50:26.251Z,42.42
2022-10-23T22:55:33.526Z,42.56
2022-10-23T23:00:42.903Z,42.60
2022-10-23T23:05:47.924Z,42.67
2022-10-23T23:10:55.128Z,42.75
2022-10-23T23:16:02.311Z,42.78
2022-10-23T23:21:09.476Z,42.72
2022-10-23T23:26:16.738Z,42.98
2022-10-23T23:31:23.904Z,43.01
2022-10-23T23:36:31.056Z,43.13
2022-10-23T23:41:38.251Z,43.09
2022-10-23T23:46:45.739Z,43.22
2022-10-23T23:51:52.956Z,43.22
2022-10-23T23:57:00.198Z,43.34
